sensor_id;sensor_type;location;lat;lon;timestamp;pressure;altitude;pressure_sealevel;temperature;humidity
86118;BME280;76780;43.120;5.934;2024-03-29T00:01:15;100533.84;;;14.29;81.50
86118;BME280;76780;43.120;5.934;2024-03-29T00:03:41;100528.16;;;14.26;81.71
86118;BME280;76780;43.120;5.934;2024-03-29T00:06:07;100521.69;;;14.25;81.30
86118;BME280;76780;43.120;5.934;2024-03-29T00:08:32;100525.78;;;14.28;81.54
86118;BME280;76780;43.120;5.934;2024-03-29T00:10:58;100532.78;;;14.34;81.80
86118;BME280;76780;43.120;5.934;2024-03-29T00:13:23;100538.03;;;14.35;81.63
86118;BME280;76780;43.120;5.934;2024-03-29T00:15:49;100538.94;;;14.39;80.98
86118;BME280;76780;43.120;5.934;2024-03-29T00:18:14;100533.28;;;14.39;81.06
86118;BME280;76780;43.120;5.934;2024-03-29T00:20:40;100536.72;;;14.48;80.80
86118;BME280;76780;43.120;5.934;2024-03-29T00:23:05;100527.84;;;14.46;81.03
86118;BME280;76780;43.120;5.934;2024-03-29T00:25:30;100532.66;;;14.46;80.78
86118;BME280;76780;43.120;5.934;2024-03-29T00:27:57;100510.94;;;14.46;80.67
86118;BME280;76780;43.120;5.934;2024-03-29T00:30:22;100500.59;;;14.50;80.94
86118;BME280;76780;43.120;5.934;2024-03-29T00:32:48;100507.13;;;14.54;80.51
86118;BME280;76780;43.120;5.934;2024-03-29T00:35:13;100526.38;;;14.52;80.95
86118;BME280;76780;43.120;5.934;2024-03-29T00:37:40;100546.97;;;14.56;80.55
86118;BME280;76780;43.120;5.934;2024-03-29T00:40:05;100547.44;;;14.58;80.00
86118;BME280;76780;43.120;5.934;2024-03-29T00:42:31;100550.69;;;14.60;80.03
86118;BME280;76780;43.120;5.934;2024-03-29T00:44:57;100540.34;;;14.64;79.91
86118;BME280;76780;43.120;5.934;2024-03-29T00:47:22;100532.53;;;14.58;79.80
86118;BME280;76780;43.120;5.934;2024-03-29T00:49:47;100533.09;;;14.63;79.47
86118;BME280;76780;43.120;5.934;2024-03-29T00:52:13;100522.72;;;14.67;78.83
86118;BME280;76780;43.120;5.934;2024-03-29T00:54:38;100525.97;;;14.69;79.24
86118;BME280;76780;43.120;5.934;2024-03-29T00:57:04;100531.78;;;14.76;78.34
86118;BME280;76780;43.120;5.934;2024-03-29T00:59:31;100525.69;;;14.74;78.27
86118;BME280;76780;43.120;5.934;2024-03-29T01:01:57;100526.88;;;14.73;78.88
86118;BME280;76780;43.120;5.934;2024-03-29T01:04:22;100530.59;;;14.77;78.09
86118;BME280;76780;43.120;5.934;2024-03-29T01:06:48;100533.69;;;14.72;78.34
86118;BME280;76780;43.120;5.934;2024-03-29T01:09:13;100538.31;;;14.80;78.07
86118;BME280;76780;43.120;5.934;2024-03-29T01:11:39;100536.81;;;14.86;77.97
86118;BME280;76780;43.120;5.934;2024-03-29T01:14:05;100563.53;;;14.92;77.74
86118;BME280;76780;43.120;5.934;2024-03-29T01:16:31;100570.50;;;14.98;77.47
86118;BME280;76780;43.120;5.934;2024-03-29T01:18:58;100589.69;;;14.93;77.43
86118;BME280;76780;43.120;5.934;2024-03-29T01:21:26;100582.91;;;14.94;77.59
86118;BME280;76780;43.120;5.934;2024-03-29T01:23:52;100589.19;;;14.87;77.93
86118;BME280;76780;43.120;5.934;2024-03-29T01:26:17;100597.94;;;14.82;77.83
86118;BME280;76780;43.120;5.934;2024-03-29T01:28:43;100587.22;;;14.72;78.13
86118;BME280;76780;43.120;5.934;2024-03-29T01:31:09;100598.28;;;14.65;78.18
86118;BME280;76780;43.120;5.934;2024-03-29T01:33:35;100589.41;;;14.63;78.31
86118;BME280;76780;43.120;5.934;2024-03-29T01:36:04;100574.44;;;14.44;79.36
86118;BME280;76780;43.120;5.934;2024-03-29T01:38:30;100576.00;;;14.41;79.17
86118;BME280;76780;43.120;5.934;2024-03-29T01:40:57;100581.06;;;14.51;79.18
86118;BME280;76780;43.120;5.934;2024-03-29T01:43:23;100576.31;;;14.55;78.81
86118;BME280;76780;43.120;5.934;2024-03-29T01:45:56;100592.59;;;14.46;79.71
86118;BME280;76780;43.120;5.934;2024-03-29T01:48:25;100584.34;;;14.53;79.73
86118;BME280;76780;43.120;5.934;2024-03-29T01:50:53;100582.34;;;14.38;80.95
86118;BME280;76780;43.120;5.934;2024-03-29T01:53:22;100578.53;;;14.46;80.56
86118;BME280;76780;43.120;5.934;2024-03-29T01:55:47;100573.47;;;14.36;81.47
86118;BME280;76780;43.120;5.934;2024-03-29T01:58:13;100587.06;;;14.34;81.28
86118;BME280;76780;43.120;5.934;2024-03-29T02:00:41;100594.31;;;14.35;81.24
86118;BME280;76780;43.120;5.934;2024-03-29T02:03:07;100584.72;;;14.36;82.03
86118;BME280;76780;43.120;5.934;2024-03-29T02:05:43;100594.97;;;14.44;81.19
86118;BME280;76780;43.120;5.934;2024-03-29T02:08:10;100600.69;;;14.32;82.45
86118;BME280;76780;43.120;5.934;2024-03-29T02:10:35;100591.06;;;14.33;82.81
86118;BME280;76780;43.120;5.934;2024-03-29T02:13:02;100591.06;;;14.33;82.67
86118;BME280;76780;43.120;5.934;2024-03-29T02:15:31;100592.25;;;14.32;83.39
86118;BME280;76780;43.120;5.934;2024-03-29T02:17:57;100590.22;;;14.33;83.47
86118;BME280;76780;43.120;5.934;2024-03-29T02:20:23;100596.13;;;14.43;83.45
86118;BME280;76780;43.120;5.934;2024-03-29T02:23:00;100594.50;;;14.42;83.51
86118;BME280;76780;43.120;5.934;2024-03-29T02:25:27;100597.88;;;14.48;83.87
86118;BME280;76780;43.120;5.934;2024-03-29T02:27:55;100592.50;;;14.58;83.85
86118;BME280;76780;43.120;5.934;2024-03-29T02:30:21;100595.94;;;14.67;84.20
86118;BME280;76780;43.120;5.934;2024-03-29T02:32:47;100595.75;;;14.60;83.68
86118;BME280;76780;43.120;5.934;2024-03-29T02:35:12;100601.56;;;14.67;84.09
86118;BME280;76780;43.120;5.934;2024-03-29T02:37:38;100596.91;;;14.75;84.16
86118;BME280;76780;43.120;5.934;2024-03-29T02:40:05;100598.66;;;14.79;83.72
86118;BME280;76780;43.120;5.934;2024-03-29T02:42:31;100599.19;;;14.85;84.19
86118;BME280;76780;43.120;5.934;2024-03-29T02:44:57;100595.72;;;14.91;83.44
86118;BME280;76780;43.120;5.934;2024-03-29T02:47:23;100593.75;;;14.76;83.97
86118;BME280;76780;43.120;5.934;2024-03-29T02:49:48;100576.94;;;14.64;84.36
86118;BME280;76780;43.120;5.934;2024-03-29T02:52:14;100581.97;;;14.55;84.62
86118;BME280;76780;43.120;5.934;2024-03-29T02:54:41;100580.69;;;14.53;84.35
86118;BME280;76780;43.120;5.934;2024-03-29T02:57:09;100583.44;;;14.49;84.87
86118;BME280;76780;43.120;5.934;2024-03-29T02:59:35;100583.88;;;14.51;84.20
86118;BME280;76780;43.120;5.934;2024-03-29T03:02:00;100585.41;;;14.64;84.18
86118;BME280;76780;43.120;5.934;2024-03-29T03:04:31;100582.59;;;14.64;84.13
86118;BME280;76780;43.120;5.934;2024-03-29T03:06:56;100585.69;;;14.59;84.37
86118;BME280;76780;43.120;5.934;2024-03-29T03:09:42;100579.63;;;14.57;84.67
86118;BME280;76780;43.120;5.934;2024-03-29T03:12:26;100584.50;;;14.60;85.08
86118;BME280;76780;43.120;5.934;2024-03-29T03:14:51;100580.97;;;14.63;85.12
86118;BME280;76780;43.120;5.934;2024-03-29T03:17:18;100579.75;;;14.64;85.23
86118;BME280;76780;43.120;5.934;2024-03-29T03:19:43;100574.06;;;14.61;85.03
86118;BME280;76780;43.120;5.934;2024-03-29T03:22:08;100572.50;;;14.63;85.36
86118;BME280;76780;43.120;5.934;2024-03-29T03:24:34;100571.59;;;14.59;84.48
86118;BME280;76780;43.120;5.934;2024-03-29T03:26:59;100558.72;;;14.58;85.10
86118;BME280;76780;43.120;5.934;2024-03-29T03:29:25;100563.50;;;14.58;84.71
86118;BME280;76780;43.120;5.934;2024-03-29T03:31:50;100582.03;;;14.59;85.12
86118;BME280;76780;43.120;5.934;2024-03-29T03:34:16;100578.44;;;14.58;85.09
86118;BME280;76780;43.120;5.934;2024-03-29T03:36:41;100575.59;;;14.58;85.55
86118;BME280;76780;43.120;5.934;2024-03-29T03:39:08;100581.53;;;14.53;85.53
86118;BME280;76780;43.120;5.934;2024-03-29T03:41:34;100584.34;;;14.53;85.39
86118;BME280;76780;43.120;5.934;2024-03-29T03:43:59;100580.25;;;14.51;86.13
86118;BME280;76780;43.120;5.934;2024-03-29T03:46:26;100588.25;;;14.49;86.59
86118;BME280;76780;43.120;5.934;2024-03-29T03:48:51;100584.16;;;14.46;86.38
86118;BME280;76780;43.120;5.934;2024-03-29T03:51:17;100577.25;;;14.44;86.91
86118;BME280;76780;43.120;5.934;2024-03-29T03:53:42;100584.88;;;14.43;87.04
86118;BME280;76780;43.120;5.934;2024-03-29T03:56:07;100572.00;;;14.42;87.52
86118;BME280;76780;43.120;5.934;2024-03-29T03:58:33;100580.00;;;14.40;87.38
86118;BME280;76780;43.120;5.934;2024-03-29T04:01:04;100581.63;;;14.41;87.94
86118;BME280;76780;43.120;5.934;2024-03-29T04:03:29;100580.91;;;14.44;87.32
86118;BME280;76780;43.120;5.934;2024-03-29T04:05:55;100579.25;;;14.43;87.32
86118;BME280;76780;43.120;5.934;2024-03-29T04:08:20;100590.69;;;14.50;87.11
86118;BME280;76780;43.120;5.934;2024-03-29T04:10:46;100590.22;;;14.48;87.20
86118;BME280;76780;43.120;5.934;2024-03-29T04:13:11;100600.31;;;14.49;86.97
86118;BME280;76780;43.120;5.934;2024-03-29T04:15:37;100602.69;;;14.47;87.01
86118;BME280;76780;43.120;5.934;2024-03-29T04:18:02;100592.97;;;14.45;87.56
86118;BME280;76780;43.120;5.934;2024-03-29T04:20:28;100590.97;;;14.45;87.14
86118;BME280;76780;43.120;5.934;2024-03-29T04:22:53;100587.34;;;14.45;87.34
86118;BME280;76780;43.120;5.934;2024-03-29T04:25:19;100582.53;;;14.45;87.21
86118;BME280;76780;43.120;5.934;2024-03-29T04:27:44;100590.50;;;14.43;87.16
86118;BME280;76780;43.120;5.934;2024-03-29T04:30:10;100592.16;;;14.44;87.49
86118;BME280;76780;43.120;5.934;2024-03-29T04:32:37;100586.53;;;14.44;87.13
86118;BME280;76780;43.120;5.934;2024-03-29T04:35:03;100587.34;;;14.45;87.49
86118;BME280;76780;43.120;5.934;2024-03-29T04:37:29;100592.88;;;14.41;87.33
86118;BME280;76780;43.120;5.934;2024-03-29T04:39:56;100589.59;;;14.39;87.32
86118;BME280;76780;43.120;5.934;2024-03-29T04:42:21;100582.34;;;14.38;88.02
86118;BME280;76780;43.120;5.934;2024-03-29T04:44:47;100575.09;;;14.37;87.48
86118;BME280;76780;43.120;5.934;2024-03-29T04:47:13;100586.34;;;14.37;87.89
86118;BME280;76780;43.120;5.934;2024-03-29T04:49:39;100577.44;;;14.35;87.94
86118;BME280;76780;43.120;5.934;2024-03-29T04:52:06;100588.69;;;14.35;87.56
86118;BME280;76780;43.120;5.934;2024-03-29T04:54:32;100590.34;;;14.36;87.17
86118;BME280;76780;43.120;5.934;2024-03-29T04:56:59;100583.16;;;14.39;87.39
86118;BME280;76780;43.120;5.934;2024-03-29T04:59:28;100576.72;;;14.38;87.35
86118;BME280;76780;43.120;5.934;2024-03-29T05:01:54;100589.59;;;14.39;87.41
86118;BME280;76780;43.120;5.934;2024-03-29T05:04:22;100578.34;;;14.39;87.08
86118;BME280;76780;43.120;5.934;2024-03-29T05:06:54;100581.44;;;14.34;87.28
86118;BME280;76780;43.120;5.934;2024-03-29T05:09:21;100587.13;;;14.38;86.71
86118;BME280;76780;43.120;5.934;2024-03-29T05:11:46;100584.88;;;14.43;86.01
86118;BME280;76780;43.120;5.934;2024-03-29T05:14:16;100592.31;;;14.51;85.27
86118;BME280;76780;43.120;5.934;2024-03-29T05:16:45;100595.50;;;14.50;85.28
86118;BME280;76780;43.120;5.934;2024-03-29T05:19:12;100593.78;;;14.45;85.26
86118;BME280;76780;43.120;5.934;2024-03-29T05:21:37;100592.88;;;14.41;85.80
86118;BME280;76780;43.120;5.934;2024-03-29T05:24:03;100597.69;;;14.41;86.61
86118;BME280;76780;43.120;5.934;2024-03-29T05:26:28;100595.59;;;14.38;86.50
86118;BME280;76780;43.120;5.934;2024-03-29T05:28:54;100594.72;;;14.34;86.58
86118;BME280;76780;43.120;5.934;2024-03-29T05:31:22;100601.59;;;14.36;86.27
86118;BME280;76780;43.120;5.934;2024-03-29T05:33:48;100595.06;;;14.32;86.64
86118;BME280;76780;43.120;5.934;2024-03-29T05:36:13;100597.41;;;14.30;86.74
86118;BME280;76780;43.120;5.934;2024-03-29T05:38:39;100597.88;;;14.32;86.61
86118;BME280;76780;43.120;5.934;2024-03-29T05:41:04;100609.66;;;14.38;86.21
86118;BME280;76780;43.120;5.934;2024-03-29T05:43:30;100607.22;;;14.36;86.01
86118;BME280;76780;43.120;5.934;2024-03-29T05:45:57;100598.50;;;14.41;85.53
86118;BME280;76780;43.120;5.934;2024-03-29T05:48:23;100602.94;;;14.42;85.59
86118;BME280;76780;43.120;5.934;2024-03-29T05:50:49;100587.25;;;14.41;85.79
86118;BME280;76780;43.120;5.934;2024-03-29T05:53:14;100596.13;;;14.43;85.73
86118;BME280;76780;43.120;5.934;2024-03-29T05:55:40;100598.66;;;14.48;84.86
86118;BME280;76780;43.120;5.934;2024-03-29T05:58:05;100600.31;;;14.49;85.13
86118;BME280;76780;43.120;5.934;2024-03-29T06:00:33;100614.75;;;14.48;85.10
86118;BME280;76780;43.120;5.934;2024-03-29T06:03:00;100609.94;;;14.48;85.32
86118;BME280;76780;43.120;5.934;2024-03-29T06:05:29;100607.59;;;14.50;85.11
86118;BME280;76780;43.120;5.934;2024-03-29T06:07:54;100597.88;;;14.48;85.06
86118;BME280;76780;43.120;5.934;2024-03-29T06:10:20;100605.84;;;14.46;85.56
86118;BME280;76780;43.120;5.934;2024-03-29T06:12:45;100600.22;;;14.46;85.32
86118;BME280;76780;43.120;5.934;2024-03-29T06:15:11;100602.69;;;14.47;85.27
86118;BME280;76780;43.120;5.934;2024-03-29T06:17:55;100610.47;;;14.54;84.76
86118;BME280;76780;43.120;5.934;2024-03-29T06:20:20;100596.50;;;14.57;84.50
86118;BME280;76780;43.120;5.934;2024-03-29T06:22:46;100595.03;;;14.63;83.70
86118;BME280;76780;43.120;5.934;2024-03-29T06:25:12;100606.47;;;14.70;83.69
86118;BME280;76780;43.120;5.934;2024-03-29T06:27:37;100608.28;;;14.78;82.98
86118;BME280;76780;43.120;5.934;2024-03-29T06:30:04;100598.00;;;14.86;82.16
86118;BME280;76780;43.120;5.934;2024-03-29T06:32:31;100603.72;;;14.89;82.15
86118;BME280;76780;43.120;5.934;2024-03-29T06:34:57;100601.06;;;14.96;81.30
86118;BME280;76780;43.120;5.934;2024-03-29T06:37:23;100597.66;;;15.06;80.93
86118;BME280;76780;43.120;5.934;2024-03-29T06:39:51;100594.41;;;15.04;81.21
86118;BME280;76780;43.120;5.934;2024-03-29T06:42:17;100595.75;;;15.10;80.82
86118;BME280;76780;43.120;5.934;2024-03-29T06:44:43;100585.38;;;15.14;80.63
86118;BME280;76780;43.120;5.934;2024-03-29T06:47:08;100585.72;;;15.13;80.22
86118;BME280;76780;43.120;5.934;2024-03-29T06:49:34;100581.59;;;15.26;79.94
86118;BME280;76780;43.120;5.934;2024-03-29T06:52:02;100582.13;;;15.31;79.83
86118;BME280;76780;43.120;5.934;2024-03-29T06:54:28;100580.09;;;15.47;79.25
86118;BME280;76780;43.120;5.934;2024-03-29T06:56:54;100588.81;;;15.61;78.45
86118;BME280;76780;43.120;5.934;2024-03-29T06:59:20;100588.41;;;15.59;78.58
86118;BME280;76780;43.120;5.934;2024-03-29T07:01:45;100585.78;;;15.70;77.95
86118;BME280;76780;43.120;5.934;2024-03-29T07:04:21;100585.22;;;15.83;77.47
86118;BME280;76780;43.120;5.934;2024-03-29T07:06:47;100577.16;;;16.04;76.15
86118;BME280;76780;43.120;5.934;2024-03-29T07:09:15;100569.91;;;16.03;76.07
86118;BME280;76780;43.120;5.934;2024-03-29T07:11:41;100560.00;;;16.35;74.84
86118;BME280;76780;43.120;5.934;2024-03-29T07:14:06;100560.31;;;16.08;75.36
86118;BME280;76780;43.120;5.934;2024-03-29T07:16:32;100561.25;;;16.15;75.14
86118;BME280;76780;43.120;5.934;2024-03-29T07:18:57;100540.25;;;16.13;74.89
86118;BME280;76780;43.120;5.934;2024-03-29T07:21:24;100562.88;;;16.16;74.50
86118;BME280;76780;43.120;5.934;2024-03-29T07:23:50;100549.00;;;16.30;73.97
86118;BME280;76780;43.120;5.934;2024-03-29T07:26:16;100554.53;;;16.23;73.76
86118;BME280;76780;43.120;5.934;2024-03-29T07:28:41;100543.44;;;16.56;72.66
86118;BME280;76780;43.120;5.934;2024-03-29T07:31:07;100540.59;;;16.82;71.45
86118;BME280;76780;43.120;5.934;2024-03-29T07:33:33;100535.03;;;16.89;71.36
86118;BME280;76780;43.120;5.934;2024-03-29T07:35:59;100532.13;;;17.12;70.46
86118;BME280;76780;43.120;5.934;2024-03-29T07:38:24;100536.88;;;17.04;69.75
86118;BME280;76780;43.120;5.934;2024-03-29T07:40:51;100539.78;;;16.56;71.90
86118;BME280;76780;43.120;5.934;2024-03-29T07:43:17;100539.63;;;16.71;71.58
86118;BME280;76780;43.120;5.934;2024-03-29T07:45:43;100530.16;;;16.86;70.27
86118;BME280;76780;43.120;5.934;2024-03-29T07:48:12;100531.22;;;17.04;69.33
86118;BME280;76780;43.120;5.934;2024-03-29T07:50:39;100532.53;;;16.84;69.69
86118;BME280;76780;43.120;5.934;2024-03-29T07:53:05;100529.41;;;16.63;69.67
86118;BME280;76780;43.120;5.934;2024-03-29T07:55:30;100538.75;;;16.67;69.84
86118;BME280;76780;43.120;5.934;2024-03-29T07:57:56;100544.91;;;17.02;68.38
86118;BME280;76780;43.120;5.934;2024-03-29T08:00:21;100549.19;;;17.48;66.91
86118;BME280;76780;43.120;5.934;2024-03-29T08:02:47;100565.88;;;17.57;66.32
86118;BME280;76780;43.120;5.934;2024-03-29T08:05:13;100559.41;;;17.56;66.95
86118;BME280;76780;43.120;5.934;2024-03-29T08:07:38;100553.75;;;17.56;66.96
86118;BME280;76780;43.120;5.934;2024-03-29T08:10:04;100567.66;;;17.39;67.31
86118;BME280;76780;43.120;5.934;2024-03-29T08:12:32;100561.16;;;17.38;67.47
86118;BME280;76780;43.120;5.934;2024-03-29T08:14:58;100571.66;;;17.67;66.76
86118;BME280;76780;43.120;5.934;2024-03-29T08:17:24;100565.06;;;17.56;66.92
86118;BME280;76780;43.120;5.934;2024-03-29T08:19:50;100568.19;;;17.48;66.89
86118;BME280;76780;43.120;5.934;2024-03-29T08:22:15;100585.22;;;17.51;66.93
86118;BME280;76780;43.120;5.934;2024-03-29T08:24:41;100590.00;;;17.47;67.05
86118;BME280;76780;43.120;5.934;2024-03-29T08:27:07;100576.44;;;17.96;65.40
86118;BME280;76780;43.120;5.934;2024-03-29T08:29:34;100583.25;;;17.88;64.64
86118;BME280;76780;43.120;5.934;2024-03-29T08:32:00;100577.47;;;17.81;65.46
86118;BME280;76780;43.120;5.934;2024-03-29T08:34:25;100579.19;;;17.56;66.02
86118;BME280;76780;43.120;5.934;2024-03-29T08:36:53;100584.44;;;17.54;65.83
86118;BME280;76780;43.120;5.934;2024-03-29T08:39:19;100580.66;;;17.43;66.00
86118;BME280;76780;43.120;5.934;2024-03-29T08:41:44;100567.38;;;17.47;65.29
86118;BME280;76780;43.120;5.934;2024-03-29T08:44:11;100571.91;;;17.55;65.41
86118;BME280;76780;43.120;5.934;2024-03-29T08:46:37;100573.69;;;17.37;66.02
86118;BME280;76780;43.120;5.934;2024-03-29T08:49:02;100564.38;;;17.66;65.47
86118;BME280;76780;43.120;5.934;2024-03-29T08:51:28;100568.13;;;18.14;63.73
86118;BME280;76780;43.120;5.934;2024-03-29T08:53:55;100565.84;;;18.26;63.69
86118;BME280;76780;43.120;5.934;2024-03-29T08:56:23;100577.75;;;18.97;61.60
86118;BME280;76780;43.120;5.934;2024-03-29T08:58:48;100571.38;;;19.14;60.34
86118;BME280;76780;43.120;5.934;2024-03-29T09:01:15;100582.59;;;18.93;59.29
86118;BME280;76780;43.120;5.934;2024-03-29T09:03:40;100574.56;;;19.02;58.66
86118;BME280;76780;43.120;5.934;2024-03-29T09:06:06;100587.00;;;18.87;59.10
86118;BME280;76780;43.120;5.934;2024-03-29T09:08:31;100584.09;;;18.80;59.71
86118;BME280;76780;43.120;5.934;2024-03-29T09:10:57;100578.69;;;19.15;58.76
86118;BME280;76780;43.120;5.934;2024-03-29T09:13:23;100590.06;;;19.22;58.62
86118;BME280;76780;43.120;5.934;2024-03-29T09:15:49;100591.66;;;18.62;60.16
86118;BME280;76780;43.120;5.934;2024-03-29T09:18:14;100591.25;;;18.60;60.43
86118;BME280;76780;43.120;5.934;2024-03-29T09:20:58;100589.97;;;18.13;62.67
86118;BME280;76780;43.120;5.934;2024-03-29T09:23:24;100581.53;;;18.20;62.61
86118;BME280;76780;43.120;5.934;2024-03-29T09:25:51;100588.41;;;17.79;63.63
86118;BME280;76780;43.120;5.934;2024-03-29T09:28:16;100589.31;;;17.57;64.53
86118;BME280;76780;43.120;5.934;2024-03-29T09:30:41;100578.19;;;17.71;64.63
86118;BME280;76780;43.120;5.934;2024-03-29T09:33:07;100573.78;;;17.44;65.71
86118;BME280;76780;43.120;5.934;2024-03-29T09:35:35;100572.28;;;17.50;65.25
86118;BME280;76780;43.120;5.934;2024-03-29T09:38:01;100567.28;;;17.40;65.12
86118;BME280;76780;43.120;5.934;2024-03-29T09:40:28;100562.47;;;17.44;64.59
86118;BME280;76780;43.120;5.934;2024-03-29T09:42:56;100572.16;;;17.43;64.83
86118;BME280;76780;43.120;5.934;2024-03-29T09:45:32;100562.66;;;17.58;63.67
86118;BME280;76780;43.120;5.934;2024-03-29T09:48:01;100565.25;;;17.70;63.10
86118;BME280;76780;43.120;5.934;2024-03-29T09:50:27;100573.38;;;17.75;62.88
86118;BME280;76780;43.120;5.934;2024-03-29T09:52:53;100574.25;;;18.19;61.25
86118;BME280;76780;43.120;5.934;2024-03-29T09:55:18;100579.38;;;18.43;60.69
86118;BME280;76780;43.120;5.934;2024-03-29T09:57:45;100554.88;;;18.21;61.10
86118;BME280;76780;43.120;5.934;2024-03-29T10:00:11;100558.41;;;18.55;59.86
86118;BME280;76780;43.120;5.934;2024-03-29T10:02:38;100553.22;;;18.67;59.09
86118;BME280;76780;43.120;5.934;2024-03-29T10:05:08;100578.56;;;18.94;58.65
86118;BME280;76780;43.120;5.934;2024-03-29T10:07:35;100559.19;;;19.10;57.29
86118;BME280;76780;43.120;5.934;2024-03-29T10:10:01;100556.16;;;19.36;56.02
86118;BME280;76780;43.120;5.934;2024-03-29T10:12:28;100568.38;;;19.54;54.70
86118;BME280;76780;43.120;5.934;2024-03-29T10:14:54;100557.03;;;19.61;54.18
86118;BME280;76780;43.120;5.934;2024-03-29T10:17:30;100564.44;;;19.83;54.08
86118;BME280;76780;43.120;5.934;2024-03-29T10:20:00;100565.97;;;19.63;53.73
86118;BME280;76780;43.120;5.934;2024-03-29T10:22:25;100553.66;;;19.31;54.58
86118;BME280;76780;43.120;5.934;2024-03-29T10:24:51;100552.88;;;19.34;54.86
86118;BME280;76780;43.120;5.934;2024-03-29T10:27:16;100553.75;;;19.52;54.49
86118;BME280;76780;43.120;5.934;2024-03-29T10:29:42;100532.69;;;19.53;54.37
86118;BME280;76780;43.120;5.934;2024-03-29T10:32:07;100535.72;;;19.13;54.91
86118;BME280;76780;43.120;5.934;2024-03-29T10:34:34;100536.69;;;19.38;54.31
86118;BME280;76780;43.120;5.934;2024-03-29T10:37:02;100533.53;;;19.60;53.66
86118;BME280;76780;43.120;5.934;2024-03-29T10:39:29;100521.22;;;19.25;54.71
86118;BME280;76780;43.120;5.934;2024-03-29T10:41:56;100526.91;;;19.25;54.47
86118;BME280;76780;43.120;5.934;2024-03-29T10:44:23;100523.66;;;19.30;54.38
86118;BME280;76780;43.120;5.934;2024-03-29T10:46:50;100512.38;;;19.44;53.83
86118;BME280;76780;43.120;5.934;2024-03-29T10:49:17;100502.22;;;19.36;53.99
86118;BME280;76780;43.120;5.934;2024-03-29T10:51:43;100504.94;;;19.15;54.64
86118;BME280;76780;43.120;5.934;2024-03-29T10:54:10;100505.63;;;18.91;55.13
86118;BME280;76780;43.120;5.934;2024-03-29T10:56:36;100495.94;;;18.99;54.53
86118;BME280;76780;43.120;5.934;2024-03-29T10:59:15;100508.03;;;18.89;55.05
86118;BME280;76780;43.120;5.934;2024-03-29T11:01:44;100502.34;;;18.89;55.16
86118;BME280;76780;43.120;5.934;2024-03-29T11:04:21;100495.94;;;18.99;54.68
86118;BME280;76780;43.120;5.934;2024-03-29T11:06:49;100495.16;;;19.02;54.65
86118;BME280;76780;43.120;5.934;2024-03-29T11:09:17;100504.84;;;18.94;55.11
86118;BME280;76780;43.120;5.934;2024-03-29T11:11:47;100503.16;;;18.86;55.37
86118;BME280;76780;43.120;5.934;2024-03-29T11:14:20;100507.16;;;18.78;55.51
86118;BME280;76780;43.120;5.934;2024-03-29T11:16:46;100512.06;;;18.88;55.44
86118;BME280;76780;43.120;5.934;2024-03-29T11:19:14;100508.31;;;19.38;53.97
86118;BME280;76780;43.120;5.934;2024-03-29T11:21:40;100509.19;;;19.63;53.03
86118;BME280;76780;43.120;5.934;2024-03-29T11:24:08;100509.09;;;19.35;53.97
86118;BME280;76780;43.120;5.934;2024-03-29T11:26:34;100507.41;;;19.20;53.54
86118;BME280;76780;43.120;5.934;2024-03-29T11:29:00;100511.63;;;19.61;52.82
86118;BME280;76780;43.120;5.934;2024-03-29T11:31:27;100497.00;;;19.52;52.60
86118;BME280;76780;43.120;5.934;2024-03-29T11:33:53;100501.09;;;19.65;52.68
86118;BME280;76780;43.120;5.934;2024-03-29T11:36:25;100485.59;;;19.38;53.61
86118;BME280;76780;43.120;5.934;2024-03-29T11:38:56;100485.97;;;19.26;54.18
86118;BME280;76780;43.120;5.934;2024-03-29T11:41:27;100477.41;;;19.22;53.84
86118;BME280;76780;43.120;5.934;2024-03-29T11:43:53;100471.72;;;19.19;53.77
86118;BME280;76780;43.120;5.934;2024-03-29T11:46:20;100476.59;;;19.22;53.91
86118;BME280;76780;43.120;5.934;2024-03-29T11:48:46;100479.56;;;19.50;53.47
86118;BME280;76780;43.120;5.934;2024-03-29T11:51:16;100487.22;;;19.32;53.64
86118;BME280;76780;43.120;5.934;2024-03-29T11:53:43;100494.69;;;19.96;52.11
86118;BME280;76780;43.120;5.934;2024-03-29T11:56:11;100482.56;;;20.13;51.43
86118;BME280;76780;43.120;5.934;2024-03-29T11:58:39;100480.06;;;20.01;51.32
86118;BME280;76780;43.120;5.934;2024-03-29T12:01:05;100471.13;;;19.88;52.03
86118;BME280;76780;43.120;5.934;2024-03-29T12:03:32;100468.25;;;19.78;51.92
86118;BME280;76780;43.120;5.934;2024-03-29T12:05:59;100467.06;;;20.07;51.63
86118;BME280;76780;43.120;5.934;2024-03-29T12:08:32;100457.34;;;20.08;51.68
86118;BME280;76780;43.120;5.934;2024-03-29T12:11:01;100446.38;;;19.85;52.24
86118;BME280;76780;43.120;5.934;2024-03-29T12:13:28;100428.94;;;19.80;52.10
86118;BME280;76780;43.120;5.934;2024-03-29T12:15:55;100433.72;;;19.48;53.36
86118;BME280;76780;43.120;5.934;2024-03-29T12:18:23;100440.66;;;19.57;53.43
86118;BME280;76780;43.120;5.934;2024-03-29T12:20:51;100444.75;;;19.74;52.54
86118;BME280;76780;43.120;5.934;2024-03-29T12:23:17;100434.63;;;19.76;52.29
86118;BME280;76780;43.120;5.934;2024-03-29T12:25:43;100454.44;;;19.59;52.57
86118;BME280;76780;43.120;5.934;2024-03-29T12:28:10;100424.84;;;19.60;52.63
86118;BME280;76780;43.120;5.934;2024-03-29T12:30:36;100429.72;;;19.63;52.12
86118;BME280;76780;43.120;5.934;2024-03-29T12:33:07;100418.38;;;19.84;51.58
86118;BME280;76780;43.120;5.934;2024-03-29T12:35:33;100422.47;;;20.04;50.82
86118;BME280;76780;43.120;5.934;2024-03-29T12:38:00;100420.81;;;20.03;51.04
86118;BME280;76780;43.120;5.934;2024-03-29T12:40:27;100423.66;;;20.03;50.96
86118;BME280;76780;43.120;5.934;2024-03-29T12:42:55;100424.06;;;19.77;51.84
86118;BME280;76780;43.120;5.934;2024-03-29T12:45:22;100428.06;;;19.55;52.46
86118;BME280;76780;43.120;5.934;2024-03-29T12:47:47;100425.66;;;19.74;51.84